Time;durP1;ratioP1;P1;durP2;ratioP2;P2;SDS_P1;SDS_P2;PMS_P1;PMS_P2;Temp;Humidity;BMP_temperature;BMP_pressure;BME280_temperature;BME280_humidity;BME280_pressure;Samples;Min_cycle;Max_cycle;Signal;HPM_P1;HPM_P2
2021/11/15 00:00:45;;;;;;;9.20;2.03;;;;;;;;;;5017995;28;20494;-55
2021/11/15 00:03:12;;;;;;;9.98;2.00;;;;;;;;;;4999924;28;20049;-56
2021/11/15 00:05:38;;;;;;;6.30;2.10;;;;;;;;;;5019040;28;20049;-57
2021/11/15 00:08:03;;;;;;;5.22;1.73;;;;;;;;;;5018305;28;20061;-57
2021/11/15 00:10:30;;;;;;;4.15;1.70;;;;;;;;;;5020243;28;20030;-58
2021/11/15 00:12:56;;;;;;;11.65;2.17;;;;;;;;;;5020771;28;20041;-58
2021/11/15 00:15:22;;;;;;;5.68;1.80;;;;;;;;;;5019588;28;20056;-57
2021/11/15 00:17:51;;;;;;;9.90;1.90;;;;;;;;;;5019973;28;20041;-58
2021/11/15 00:20:18;;;;;;;14.38;1.80;;;;;;;;;;5017976;28;20042;-56
2021/11/15 00:22:44;;;;;;;6.20;1.40;;;;;;;;;;5042690;28;20102;-55
2021/11/15 00:25:11;;;;;;;4.97;1.30;;;;;;;;;;5045100;28;21721;-58
2021/11/15 00:27:38;;;;;;;4.88;1.20;;;;;;;;;;5009000;28;20044;-56
2021/11/15 00:30:05;;;;;;;3.38;1.10;;;;;;;;;;5038806;28;20160;-57
2021/11/15 00:32:31;;;;;;;5.80;1.30;;;;;;;;;;5041679;28;20090;-58
2021/11/15 00:34:57;;;;;;;3.78;1.17;;;;;;;;;;5042389;28;20514;-60
2021/11/15 00:37:23;;;;;;;3.15;0.90;;;;;;;;;;5041858;28;20052;-54
2021/11/15 00:39:49;;;;;;;3.97;0.95;;;;;;;;;;5043605;28;20524;-59
2021/11/15 00:42:15;;;;;;;3.60;1.02;;;;;;;;;;5034237;28;20068;-59
2021/11/15 00:44:41;;;;;;;4.28;1.25;;;;;;;;;;5001553;28;20060;-59
2021/11/15 00:47:07;;;;;;;4.43;1.10;;;;;;;;;;5037968;28;20128;-60
2021/11/15 00:49:33;;;;;;;4.60;1.15;;;;;;;;;;5037018;28;20033;-57
2021/11/15 00:51:58;;;;;;;4.45;1.20;;;;;;;;;;5025557;28;20048;-58
2021/11/15 00:54:24;;;;;;;6.13;1.17;;;;;;;;;;5047325;28;20065;-55
2021/11/15 00:56:50;;;;;;;3.40;1.00;;;;;;;;;;5051296;28;20029;-59
2021/11/15 00:59:16;;;;;;;4.05;1.10;;;;;;;;;;5049497;28;20136;-59
2021/11/15 01:01:42;;;;;;;4.63;1.13;;;;;;;;;;5045349;28;20037;-58
2021/11/15 01:04:08;;;;;;;4.25;1.10;;;;;;;;;;5045809;28;23424;-59
2021/11/15 01:06:34;;;;;;;3.05;1.00;;;;;;;;;;5047749;28;20041;-58
2021/11/15 01:08:59;;;;;;;5.65;1.10;;;;;;;;;;5047366;28;20047;-58
2021/11/15 01:11:25;;;;;;;4.75;1.17;;;;;;;;;;5047361;28;20041;-55
2021/11/15 01:13:52;;;;;;;7.55;1.48;;;;;;;;;;5050272;28;20393;-57
2021/11/15 01:16:18;;;;;;;3.70;1.20;;;;;;;;;;5048081;28;20288;-56
2021/11/15 01:18:44;;;;;;;1.92;0.63;;;;;;;;;;5022015;28;20160;-58
2021/11/15 01:21:13;;;;;;;3.33;0.60;;;;;;;;;;5021256;28;20049;-55
2021/11/15 01:23:39;;;;;;;2.40;0.57;;;;;;;;;;5022039;28;20049;-58
2021/11/15 01:26:06;;;;;;;1.52;0.47;;;;;;;;;;5020992;28;20052;-54
2021/11/15 01:28:32;;;;;;;1.60;0.60;;;;;;;;;;5021208;28;20037;-54
2021/11/15 01:30:58;;;;;;;1.10;0.50;;;;;;;;;;5020635;28;20144;-57
2021/11/15 01:33:24;;;;;;;1.27;0.50;;;;;;;;;;5021131;28;20140;-57
2021/11/15 01:35:50;;;;;;;2.03;0.52;;;;;;;;;;5021967;28;20042;-56
2021/11/15 01:38:16;;;;;;;0.95;0.47;;;;;;;;;;5003424;28;20099;-57
2021/11/15 01:40:42;;;;;;;1.67;0.60;;;;;;;;;;5021140;28;20048;-57
2021/11/15 01:43:07;;;;;;;1.25;0.40;;;;;;;;;;5021279;28;20382;-60
2021/11/15 01:45:35;;;;;;;1.27;0.52;;;;;;;;;;5020584;28;20033;-55
2021/11/15 01:48:02;;;;;;;5.78;0.57;;;;;;;;;;5003038;28;20135;-60
2021/11/15 01:50:28;;;;;;;1.88;0.65;;;;;;;;;;5020337;28;20037;-56
2021/11/15 01:52:55;;;;;;;1.33;0.50;;;;;;;;;;5019702;28;20060;-58
2021/11/15 01:55:22;;;;;;;1.88;0.60;;;;;;;;;;5019451;28;20486;-58
2021/11/15 01:57:48;;;;;;;4.47;1.00;;;;;;;;;;5021463;28;20045;-56
2021/11/15 02:00:16;;;;;;;4.88;1.10;;;;;;;;;;4995672;28;20732;-58
2021/11/15 02:02:43;;;;;;;1.88;0.68;;;;;;;;;;5020189;28;20102;-57
2021/11/15 02:05:08;;;;;;;2.33;0.90;;;;;;;;;;5022403;28;20156;-57
2021/11/15 02:07:34;;;;;;;1.85;0.63;;;;;;;;;;5022005;28;21988;-56
2021/11/15 02:10:10;;;;;;;2.60;0.90;;;;;;;;;;5022370;28;20483;-60
2021/11/15 02:12:36;;;;;;;3.45;0.80;;;;;;;;;;5020616;28;20581;-58
2021/11/15 02:15:03;;;;;;;2.22;0.75;;;;;;;;;;5022306;28;20060;-57
2021/11/15 02:17:30;;;;;;;2.45;0.80;;;;;;;;;;5020560;28;20155;-60
2021/11/15 02:19:57;;;;;;;4.43;0.82;;;;;;;;;;5003588;28;20037;-60
2021/11/15 02:22:23;;;;;;;2.67;1.00;;;;;;;;;;5018356;28;20053;-54
2021/11/15 02:24:49;;;;;;;2.80;1.00;;;;;;;;;;5023169;28;20099;-59
2021/11/15 02:27:15;;;;;;;3.28;1.10;;;;;;;;;;5020863;28;20140;-59
2021/11/15 02:29:41;;;;;;;5.47;1.20;;;;;;;;;;5019827;28;20045;-59
2021/11/15 02:32:07;;;;;;;1.95;0.85;;;;;;;;;;5019959;28;20562;-57
2021/11/15 02:34:33;;;;;;;3.05;1.30;;;;;;;;;;5022585;28;20045;-59
2021/11/15 02:36:59;;;;;;;9.82;1.33;;;;;;;;;;5022564;28;20033;-59
2021/11/15 02:39:26;;;;;;;4.07;1.20;;;;;;;;;;5003747;28;20102;-59
2021/11/15 02:41:52;;;;;;;5.32;1.05;;;;;;;;;;5022167;28;20041;-57
2021/11/15 02:44:18;;;;;;;2.30;0.90;;;;;;;;;;5022967;28;20088;-58
2021/11/15 02:46:44;;;;;;;3.10;1.10;;;;;;;;;;5026583;28;20041;-59
2021/11/15 02:49:09;;;;;;;2.95;1.13;;;;;;;;;;5048823;28;20401;-59
2021/11/15 02:51:35;;;;;;;6.20;1.40;;;;;;;;;;5043071;28;20500;-60
2021/11/15 02:54:01;;;;;;;3.75;1.15;;;;;;;;;;5047908;28;20037;-58
2021/11/15 02:56:27;;;;;;;4.72;1.48;;;;;;;;;;5044951;28;20469;-59
2021/11/15 02:58:53;;;;;;;4.25;1.40;;;;;;;;;;5047586;28;20048;-60
2021/11/15 03:01:20;;;;;;;4.40;1.38;;;;;;;;;;5048528;28;20037;-57
2021/11/15 03:03:46;;;;;;;2.95;1.10;;;;;;;;;;5045827;28;20048;-58
2021/11/15 03:06:12;;;;;;;4.03;1.00;;;;;;;;;;5047004;28;20086;-57
2021/11/15 03:08:38;;;;;;;4.68;1.10;;;;;;;;;;5046656;28;20055;-59
2021/11/15 03:11:05;;;;;;;5.20;1.25;;;;;;;;;;5028539;28;20522;-55
2021/11/15 03:13:34;;;;;;;4.22;1.27;;;;;;;;;;5034483;28;20029;-59
2021/11/15 03:15:59;;;;;;;3.47;1.20;;;;;;;;;;5023668;28;20045;-59
2021/11/15 03:18:27;;;;;;;7.20;1.23;;;;;;;;;;5040928;28;20051;-58
2021/11/15 03:20:54;;;;;;;2.70;1.08;;;;;;;;;;5029265;28;20033;-59
2021/11/15 03:23:22;;;;;;;2.60;1.15;;;;;;;;;;5043723;28;20128;-58
2021/11/15 03:25:49;;;;;;;6.07;1.30;;;;;;;;;;5020789;28;20961;-56
2021/11/15 03:28:16;;;;;;;5.03;1.02;;;;;;;;;;4990529;28;20506;-59
2021/11/15 03:30:42;;;;;;;7.90;1.52;;;;;;;;;;5019724;28;20049;-58
2021/11/15 03:33:08;;;;;;;3.40;1.40;;;;;;;;;;5019135;28;20088;-59
2021/11/15 03:35:34;;;;;;;4.20;1.02;;;;;;;;;;5020108;28;20465;-58
2021/11/15 03:38:00;;;;;;;2.80;1.00;;;;;;;;;;5019346;28;20067;-59
2021/11/15 03:40:27;;;;;;;4.60;1.13;;;;;;;;;;5018658;28;20041;-54
2021/11/15 03:42:55;;;;;;;2.95;1.10;;;;;;;;;;5019085;28;20056;-58
2021/11/15 03:45:21;;;;;;;4.40;1.10;;;;;;;;;;5020360;28;20037;-56
2021/11/15 03:47:47;;;;;;;2.58;1.17;;;;;;;;;;5006576;28;20048;-58
2021/11/15 03:50:13;;;;;;;2.70;0.85;;;;;;;;;;5019867;28;20136;-58
2021/11/15 03:52:40;;;;;;;3.60;1.40;;;;;;;;;;5017265;28;20056;-59
2021/11/15 03:55:07;;;;;;;2.60;1.00;;;;;;;;;;5020469;28;20092;-58
2021/11/15 03:57:33;;;;;;;2.53;1.05;;;;;;;;;;5020776;28;20119;-58
2021/11/15 03:59:59;;;;;;;5.35;1.33;;;;;;;;;;5020198;28;20049;-58
2021/11/15 04:02:28;;;;;;;2.28;0.80;;;;;;;;;;5017901;28;20313;-57
2021/11/15 04:05:02;;;;;;;3.35;0.95;;;;;;;;;;5019362;28;20069;-59
2021/11/15 04:07:32;;;;;;;6.18;1.30;;;;;;;;;;5018487;28;20148;-59
2021/11/15 04:09:59;;;;;;;3.83;1.00;;;;;;;;;;5019699;28;20469;-58
2021/11/15 04:12:26;;;;;;;2.97;1.10;;;;;;;;;;5017671;28;20034;-57
2021/11/15 04:14:52;;;;;;;4.22;1.20;;;;;;;;;;5001048;28;20034;-58
2021/11/15 04:17:18;;;;;;;4.15;1.50;;;;;;;;;;5035605;28;20041;-57
2021/11/15 04:19:45;;;;;;;4.82;1.17;;;;;;;;;;5043105;28;20038;-59
2021/11/15 04:22:11;;;;;;;2.88;0.90;;;;;;;;;;5031700;28;20107;-59
2021/11/15 04:24:36;;;;;;;3.67;1.20;;;;;;;;;;5018930;28;20045;-57
2021/11/15 04:27:02;;;;;;;3.00;1.10;;;;;;;;;;5019696;28;20048;-59
2021/11/15 04:29:29;;;;;;;1.92;0.88;;;;;;;;;;5019030;28;20030;-58
2021/11/15 04:31:54;;;;;;;2.60;0.90;;;;;;;;;;5024408;28;20042;-57
2021/11/15 04:34:20;;;;;;;3.38;1.17;;;;;;;;;;5023037;28;20057;-56
2021/11/15 04:36:46;;;;;;;2.58;1.10;;;;;;;;;;5023215;28;20649;-56
2021/11/15 04:39:12;;;;;;;3.60;1.48;;;;;;;;;;5021947;28;20102;-57
2021/11/15 04:41:38;;;;;;;2.20;0.93;;;;;;;;;;5021935;28;22373;-58
2021/11/15 04:44:04;;;;;;;2.85;0.98;;;;;;;;;;5022145;28;20092;-60
2021/11/15 04:46:32;;;;;;;2.38;0.93;;;;;;;;;;5021554;28;20044;-59
2021/11/15 04:48:58;;;;;;;2.30;1.20;;;;;;;;;;5024363;28;20045;-56
2021/11/15 04:51:24;;;;;;;2.70;1.05;;;;;;;;;;5021795;28;20137;-57
2021/11/15 04:53:50;;;;;;;3.03;1.13;;;;;;;;;;5025477;28;20143;-56
2021/11/15 04:56:16;;;;;;;2.42;0.93;;;;;;;;;;5010325;28;20037;-59
2021/11/15 04:58:42;;;;;;;2.58;1.10;;;;;;;;;;5022318;28;20086;-55
2021/11/15 05:01:08;;;;;;;3.70;1.30;;;;;;;;;;5022158;28;20041;-59
2021/11/15 05:03:37;;;;;;;4.65;1.40;;;;;;;;;;5019117;28;20053;-56
2021/11/15 05:06:04;;;;;;;3.60;1.33;;;;;;;;;;5022723;28;20368;-54
2021/11/15 05:08:29;;;;;;;3.80;1.63;;;;;;;;;;5021347;28;20133;-55
2021/11/15 05:10:56;;;;;;;4.95;1.40;;;;;;;;;;5023104;28;20090;-56
2021/11/15 05:13:22;;;;;;;4.43;1.40;;;;;;;;;;5021251;28;20037;-56
2021/11/15 05:15:47;;;;;;;3.13;1.40;;;;;;;;;;5022679;28;20549;-55
2021/11/15 05:18:14;;;;;;;5.88;1.38;;;;;;;;;;5021848;28;20029;-60
2021/11/15 05:20:40;;;;;;;4.40;1.45;;;;;;;;;;5009058;28;20041;-57
2021/11/15 05:23:06;;;;;;;3.72;1.23;;;;;;;;;;5030110;28;20049;-57
2021/11/15 05:25:32;;;;;;;3.85;1.15;;;;;;;;;;5041710;28;20145;-57
2021/11/15 05:27:58;;;;;;;3.20;1.27;;;;;;;;;;5034807;28;20058;-56
2021/11/15 05:30:24;;;;;;;3.75;1.60;;;;;;;;;;5025757;28;20037;-58
2021/11/15 05:32:51;;;;;;;3.28;1.33;;;;;;;;;;5033073;28;20029;-58
2021/11/15 05:35:18;;;;;;;3.38;1.38;;;;;;;;;;5021832;28;20033;-59
2021/11/15 05:37:44;;;;;;;2.90;1.17;;;;;;;;;;5046963;28;20044;-59
2021/11/15 05:40:11;;;;;;;3.25;1.48;;;;;;;;;;5029503;28;20043;-59
2021/11/15 05:42:37;;;;;;;6.78;1.58;;;;;;;;;;5045543;28;20052;-58
2021/11/15 05:45:04;;;;;;;3.10;1.33;;;;;;;;;;5046893;28;20307;-57
2021/11/15 05:47:30;;;;;;;4.57;1.40;;;;;;;;;;5046415;28;20037;-57
2021/11/15 05:49:56;;;;;;;3.90;1.08;;;;;;;;;;5046725;28;20041;-58
2021/11/15 05:52:23;;;;;;;6.85;1.48;;;;;;;;;;5045316;28;20155;-58
2021/11/15 05:54:50;;;;;;;3.53;1.30;;;;;;;;;;5046643;28;20087;-58
2021/11/15 05:57:15;;;;;;;3.17;1.30;;;;;;;;;;5048516;28;20545;-57
2021/11/15 05:59:41;;;;;;;3.30;1.38;;;;;;;;;;5045782;28;20056;-56
2021/11/15 06:02:07;;;;;;;2.83;1.20;;;;;;;;;;5044435;28;20037;-58
2021/11/15 06:04:33;;;;;;;3.92;1.27;;;;;;;;;;5045992;28;20100;-59
2021/11/15 06:06:58;;;;;;;5.68;1.17;;;;;;;;;;5048789;28;20033;-59
2021/11/15 06:09:24;;;;;;;3.33;1.20;;;;;;;;;;5046269;28;20147;-57
2021/11/15 06:11:50;;;;;;;4.00;1.40;;;;;;;;;;5047073;28;20044;-57
2021/11/15 06:14:16;;;;;;;3.40;1.35;;;;;;;;;;5047801;28;20539;-58
2021/11/15 06:16:41;;;;;;;3.15;1.30;;;;;;;;;;5045606;28;20097;-57
2021/11/15 06:19:07;;;;;;;5.30;1.30;;;;;;;;;;5045282;28;20179;-58
2021/11/15 06:21:33;;;;;;;3.22;1.20;;;;;;;;;;5045682;28;20128;-57
2021/11/15 06:23:59;;;;;;;3.80;1.40;;;;;;;;;;5045752;28;20565;-59
2021/11/15 06:26:25;;;;;;;5.07;1.50;;;;;;;;;;5046056;28;20036;-59
2021/11/15 06:28:50;;;;;;;3.88;1.40;;;;;;;;;;5047591;28;20032;-59
2021/11/15 06:31:16;;;;;;;6.25;1.40;;;;;;;;;;5046063;28;20083;-57
2021/11/15 06:33:48;;;;;;;4.05;1.25;;;;;;;;;;5043310;28;20045;-58
2021/11/15 06:36:15;;;;;;;2.97;1.20;;;;;;;;;;5044921;28;20484;-57
2021/11/15 06:38:41;;;;;;;3.42;1.38;;;;;;;;;;5045913;28;20090;-57
2021/11/15 06:41:07;;;;;;;2.40;0.90;;;;;;;;;;5045763;28;20786;-56
2021/11/15 06:43:33;;;;;;;3.70;1.17;;;;;;;;;;5044272;28;20049;-59
2021/11/15 06:45:58;;;;;;;3.10;1.23;;;;;;;;;;5046226;28;20077;-55
2021/11/15 06:48:24;;;;;;;3.90;1.42;;;;;;;;;;5045742;28;20127;-57
2021/11/15 06:50:50;;;;;;;3.10;1.20;;;;;;;;;;5046105;28;20044;-57
2021/11/15 06:53:16;;;;;;;8.02;1.60;;;;;;;;;;5045734;28;20068;-58
2021/11/15 06:55:42;;;;;;;2.90;1.10;;;;;;;;;;5047552;28;20770;-58
2021/11/15 06:58:09;;;;;;;3.35;1.27;;;;;;;;;;5048547;28;20037;-54
2021/11/15 07:00:34;;;;;;;2.75;1.13;;;;;;;;;;5034588;28;20071;-56
2021/11/15 07:03:00;;;;;;;3.95;1.23;;;;;;;;;;5026717;28;21702;-59
2021/11/15 07:05:26;;;;;;;4.20;1.33;;;;;;;;;;5025850;28;20067;-56
2021/11/15 07:07:53;;;;;;;3.45;1.20;;;;;;;;;;5035601;28;20774;-58
2021/11/15 07:10:19;;;;;;;3.20;1.30;;;;;;;;;;5025706;28;20075;-59
2021/11/15 07:12:46;;;;;;;3.10;1.02;;;;;;;;;;5037701;28;20072;-57
2021/11/15 07:15:12;;;;;;;4.03;1.33;;;;;;;;;;5027882;28;20041;-58
2021/11/15 07:17:38;;;;;;;3.25;1.00;;;;;;;;;;5029945;28;20037;-58
2021/11/15 07:20:04;;;;;;;3.38;1.10;;;;;;;;;;5021336;28;20548;-58
2021/11/15 07:22:30;;;;;;;6.07;1.33;;;;;;;;;;5017129;28;20045;-54
2021/11/15 07:24:56;;;;;;;2.50;1.00;;;;;;;;;;5019901;28;20787;-57
2021/11/15 07:27:22;;;;;;;3.03;1.13;;;;;;;;;;5006732;28;20041;-58
2021/11/15 07:29:47;;;;;;;3.08;1.25;;;;;;;;;;5020573;28;20045;-57
2021/11/15 07:32:15;;;;;;;6.60;1.30;;;;;;;;;;5018001;28;20063;-55
2021/11/15 07:34:41;;;;;;;4.93;0.90;;;;;;;;;;5017929;28;20056;-59
2021/11/15 07:37:07;;;;;;;2.63;0.90;;;;;;;;;;5018895;28;20227;-59
2021/11/15 07:39:42;;;;;;;3.00;1.00;;;;;;;;;;5017487;28;20417;-57
2021/11/15 07:42:08;;;;;;;3.22;1.02;;;;;;;;;;5016867;28;20084;-58
2021/11/15 07:44:34;;;;;;;2.13;0.70;;;;;;;;;;5018240;28;20589;-59
2021/11/15 07:46:59;;;;;;;1.88;0.75;;;;;;;;;;5018752;28;20037;-57
2021/11/15 07:49:25;;;;;;;2.20;0.80;;;;;;;;;;5017484;28;20485;-55
2021/11/15 07:51:51;;;;;;;3.08;0.93;;;;;;;;;;5018024;28;20046;-57
2021/11/15 07:54:17;;;;;;;2.85;1.05;;;;;;;;;;5018567;28;20034;-58
2021/11/15 07:56:43;;;;;;;3.22;1.00;;;;;;;;;;5016990;28;20041;-58
2021/11/15 07:59:08;;;;;;;4.40;0.95;;;;;;;;;;5018856;28;20034;-54
2021/11/15 08:01:34;;;;;;;2.65;0.77;;;;;;;;;;5015007;28;20038;-58
2021/11/15 08:04:00;;;;;;;2.65;0.95;;;;;;;;;;5017096;28;20108;-58
2021/11/15 08:06:26;;;;;;;2.15;0.80;;;;;;;;;;5017226;28;20046;-57
2021/11/15 08:08:51;;;;;;;2.22;0.80;;;;;;;;;;5018206;28;20100;-56
2021/11/15 08:11:18;;;;;;;3.95;0.90;;;;;;;;;;5018017;28;20519;-57
2021/11/15 08:13:43;;;;;;;3.60;1.00;;;;;;;;;;5044686;28;20064;-55
2021/11/15 08:16:09;;;;;;;1.95;0.60;;;;;;;;;;5044495;28;20048;-56
2021/11/15 08:18:38;;;;;;;3.03;0.93;;;;;;;;;;5042499;28;20051;-59
2021/11/15 08:21:08;;;;;;;2.78;1.00;;;;;;;;;;5044199;28;20044;-58
2021/11/15 08:23:34;;;;;;;2.55;0.85;;;;;;;;;;5026183;28;20048;-57
2021/11/15 08:26:03;;;;;;;2.63;0.82;;;;;;;;;;5024610;28;20038;-57
2021/11/15 08:28:29;;;;;;;3.45;1.10;;;;;;;;;;5018159;28;20029;-57
2021/11/15 08:30:56;;;;;;;2.78;0.90;;;;;;;;;;5017336;28;20906;-55
2021/11/15 08:33:22;;;;;;;2.70;0.90;;;;;;;;;;5015858;28;20083;-57
2021/11/15 08:35:48;;;;;;;1.92;0.73;;;;;;;;;;5018024;28;20041;-58
2021/11/15 08:38:18;;;;;;;2.35;0.90;;;;;;;;;;5016969;28;20041;-59
2021/11/15 08:40:47;;;;;;;3.47;0.90;;;;;;;;;;5044486;28;20033;-57
2021/11/15 08:43:14;;;;;;;2.25;0.80;;;;;;;;;;5045003;28;20842;-58
2021/11/15 08:45:40;;;;;;;2.65;0.88;;;;;;;;;;5043701;28;20055;-57
2021/11/15 08:48:06;;;;;;;2.58;0.90;;;;;;;;;;5043209;28;20041;-57
2021/11/15 08:50:32;;;;;;;2.20;0.88;;;;;;;;;;5045343;28;20036;-58
2021/11/15 08:52:58;;;;;;;3.50;1.02;;;;;;;;;;5046305;28;20037;-58
2021/11/15 08:55:24;;;;;;;5.05;0.85;;;;;;;;;;5044659;28;20041;-57
2021/11/15 08:57:50;;;;;;;3.65;0.90;;;;;;;;;;5045594;28;20035;-57
2021/11/15 09:00:16;;;;;;;2.65;0.90;;;;;;;;;;5044165;28;20056;-56
2021/11/15 09:02:42;;;;;;;2.78;0.80;;;;;;;;;;5043203;28;20505;-55
2021/11/15 09:05:08;;;;;;;4.85;0.95;;;;;;;;;;5044488;28;20070;-55
2021/11/15 09:07:37;;;;;;;3.30;0.98;;;;;;;;;;5043361;28;20044;-59
2021/11/15 09:10:04;;;;;;;2.67;1.00;;;;;;;;;;5044406;28;20051;-58
2021/11/15 09:12:30;;;;;;;2.72;0.98;;;;;;;;;;5044688;28;20025;-58
2021/11/15 09:14:57;;;;;;;2.65;0.98;;;;;;;;;;5044283;28;20051;-58
2021/11/15 09:17:23;;;;;;;3.92;0.93;;;;;;;;;;5047471;28;20041;-59
2021/11/15 09:19:49;;;;;;;2.83;1.10;;;;;;;;;;5048892;28;20045;-59
2021/11/15 09:22:15;;;;;;;2.33;0.80;;;;;;;;;;5047959;28;20044;-58
2021/11/15 09:24:41;;;;;;;7.22;1.20;;;;;;;;;;5047550;28;20040;-58
2021/11/15 09:27:13;;;;;;;2.78;0.90;;;;;;;;;;5048086;28;20302;-59
2021/11/15 09:29:39;;;;;;;2.97;0.85;;;;;;;;;;5046995;28;20125;-59
2021/11/15 09:32:05;;;;;;;2.38;0.77;;;;;;;;;;5047194;28;20554;-58
2021/11/15 09:34:30;;;;;;;4.85;1.17;;;;;;;;;;5046662;28;20076;-57
2021/11/15 09:36:56;;;;;;;2.88;0.98;;;;;;;;;;5048104;28;20178;-59
2021/11/15 09:39:24;;;;;;;2.40;0.90;;;;;;;;;;5047288;28;20037;-59
2021/11/15 09:41:49;;;;;;;2.70;0.95;;;;;;;;;;5046329;28;20040;-60
2021/11/15 09:44:15;;;;;;;3.22;0.98;;;;;;;;;;5046364;28;20060;-59
2021/11/15 09:46:41;;;;;;;4.55;0.98;;;;;;;;;;5045401;28;20040;-58
2021/11/15 09:49:11;;;;;;;2.78;1.00;;;;;;;;;;5040783;28;20447;-58
2021/11/15 09:51:38;;;;;;;2.40;0.80;;;;;;;;;;5046602;28;20191;-59
2021/11/15 09:54:04;;;;;;;3.30;0.80;;;;;;;;;;5048546;28;20087;-56
2021/11/15 09:56:30;;;;;;;2.67;0.85;;;;;;;;;;5045506;28;20059;-58
2021/11/15 09:58:56;;;;;;;2.78;0.90;;;;;;;;;;5046238;28;20101;-58
2021/11/15 10:01:22;;;;;;;3.30;1.00;;;;;;;;;;5046255;28;20044;-56
2021/11/15 10:03:48;;;;;;;2.10;0.73;;;;;;;;;;5046155;28;20048;-58
2021/11/15 10:06:14;;;;;;;3.05;0.88;;;;;;;;;;5046840;28;20044;-58
2021/11/15 10:08:46;;;;;;;2.58;0.90;;;;;;;;;;5023840;28;20040;-59
2021/11/15 10:11:12;;;;;;;3.17;0.87;;;;;;;;;;5027512;28;20034;-59
2021/11/15 10:13:40;;;;;;;2.25;0.75;;;;;;;;;;5022760;28;20045;-58
2021/11/15 10:16:08;;;;;;;2.15;0.80;;;;;;;;;;5020939;28;20041;-59
2021/11/15 10:18:41;;;;;;;2.42;0.80;;;;;;;;;;5023074;28;20078;-58
2021/11/15 10:21:07;;;;;;;;;;;;;;;;;;5020679;28;20104;-58
2021/11/15 10:23:38;;;;;;;2.60;0.77;;;;;;;;;;5019896;28;19925;-59
2021/11/15 10:26:08;;;;;;;2.72;1.00;;;;;;;;;;5007603;28;20068;-58
2021/11/15 10:28:34;;;;;;;2.15;0.73;;;;;;;;;;5019041;28;20065;-57
2021/11/15 10:31:00;;;;;;;2.22;0.80;;;;;;;;;;5019687;28;20132;-57
2021/11/15 10:33:40;;;;;;;4.22;0.90;;;;;;;;;;5021583;28;20161;-58
2021/11/15 10:36:06;;;;;;;2.10;0.80;;;;;;;;;;5020068;28;20528;-57
2021/11/15 10:38:43;;;;;;;2.25;0.70;;;;;;;;;;5019228;28;20030;-58
2021/11/15 10:41:20;;;;;;;2.50;0.90;;;;;;;;;;5018876;28;20498;-58
2021/11/15 10:43:46;;;;;;;3.20;0.90;;;;;;;;;;5045151;28;20140;-57
2021/11/15 10:46:30;;;;;;;5.70;1.30;;;;;;;;;;5045730;28;20090;-57
2021/11/15 10:48:57;;;;;;;2.50;0.93;;;;;;;;;;5027401;28;20593;-57
2021/11/15 10:52:08;;;;;;;3.10;1.02;;;;;;;;;;5026733;28;20036;-58
2021/11/15 10:54:55;;;;;;;2.97;1.10;;;;;;;;;;4976368;28;20134;-56
2021/11/15 10:57:21;;;;;;;2.83;1.05;;;;;;;;;;4977627;28;20042;-54
2021/11/15 11:00:06;;;;;;;2.95;1.10;;;;;;;;;;5022251;28;20114;-59
2021/11/15 11:02:32;;;;;;;3.60;1.20;;;;;;;;;;5044392;28;20600;-58
2021/11/15 11:05:16;;;;;;;3.08;0.98;;;;;;;;;;5047137;28;20056;-57
2021/11/15 11:07:42;;;;;;;;;;;;;;;;;;5045623;28;20733;-57
2021/11/15 11:10:08;;;;;;;3.10;1.20;;;;;;;;;;5047128;28;19920;-60
2021/11/15 11:12:44;;;;;;;4.63;1.27;;;;;;;;;;5044306;28;20052;-57
2021/11/15 11:15:29;;;;;;;2.60;1.13;;;;;;;;;;5047116;28;20041;-58
2021/11/15 11:18:22;;;;;;;2.60;1.10;;;;;;;;;;5027437;28;20148;-58
2021/11/15 11:25:48;;;;;;;2.90;0.98;;;;;;;;;;5044710;28;20098;-58
2021/11/15 11:28:34;;;;;;;2.65;1.00;;;;;;;;;;5028846;28;20040;-58
2021/11/15 11:31:02;;;;;;;2.28;0.93;;;;;;;;;;5045426;28;20649;-56
2021/11/15 11:33:30;;;;;;;2.05;0.95;;;;;;;;;;5045927;28;20056;-59
2021/11/15 11:35:57;;;;;;;2.08;0.90;;;;;;;;;;5047158;28;20040;-59
2021/11/15 11:38:23;;;;;;;3.00;0.90;;;;;;;;;;5047831;28;20040;-58
2021/11/15 11:40:51;;;;;;;2.90;1.05;;;;;;;;;;5046722;28;20501;-58
2021/11/15 11:43:17;;;;;;;3.67;1.00;;;;;;;;;;5047158;28;20085;-58
2021/11/15 11:45:43;;;;;;;3.20;1.17;;;;;;;;;;5046803;28;20090;-57
2021/11/15 11:48:09;;;;;;;2.60;0.80;;;;;;;;;;5046253;28;20044;-58
2021/11/15 11:50:36;;;;;;;4.05;0.90;;;;;;;;;;5045313;28;20040;-57
2021/11/15 11:53:06;;;;;;;3.30;1.00;;;;;;;;;;5046073;28;20045;-55
2021/11/15 11:55:41;;;;;;;3.30;1.15;;;;;;;;;;5045513;28;20033;-57
2021/11/15 11:58:22;;;;;;;5.10;0.90;;;;;;;;;;5029101;28;20320;-58
2021/11/15 12:00:55;;;;;;;2.30;0.90;;;;;;;;;;5025306;28;20040;-57
2021/11/15 12:03:25;;;;;;;2.15;0.80;;;;;;;;;;5034539;28;20080;-56
2021/11/15 12:05:54;;;;;;;3.08;0.88;;;;;;;;;;5038554;28;20059;-58
2021/11/15 12:08:40;;;;;;;2.85;0.95;;;;;;;;;;5020724;28;20098;-57
2021/11/15 12:11:22;;;;;;;2.92;0.80;;;;;;;;;;5021758;28;20172;-57
2021/11/15 12:13:48;;;;;;;2.67;0.90;;;;;;;;;;5047992;28;20116;-58
2021/11/15 12:16:15;;;;;;;1.70;0.60;;;;;;;;;;5045856;28;20041;-58
2021/11/15 12:18:52;;;;;;;2.33;0.80;;;;;;;;;;5025868;28;20051;-59
2021/11/15 12:21:21;;;;;;;2.35;0.90;;;;;;;;;;5026558;28;20068;-57
2021/11/15 12:23:53;;;;;;;2.17;0.80;;;;;;;;;;5025831;28;20141;-58
2021/11/15 12:26:24;;;;;;;2.50;0.90;;;;;;;;;;5045598;28;20036;-59
2021/11/15 12:28:54;;;;;;;2.63;0.88;;;;;;;;;;5045447;28;20056;-58
2021/11/15 12:31:38;;;;;;;2.25;0.80;;;;;;;;;;5045514;28;20485;-59
2021/11/15 12:34:05;;;;;;;2.60;0.93;;;;;;;;;;5045483;28;20056;-58
2021/11/15 12:36:39;;;;;;;2.65;0.82;;;;;;;;;;5044099;28;20051;-58
2021/11/15 12:39:13;;;;;;;2.22;0.75;;;;;;;;;;5042640;28;20029;-58
2021/11/15 12:41:40;;;;;;;2.00;0.75;;;;;;;;;;5044116;28;20056;-57
2021/11/15 12:44:14;;;;;;;2.60;0.90;;;;;;;;;;5046314;28;20073;-58
2021/11/15 12:46:47;;;;;;;1.83;0.70;;;;;;;;;;5044910;28;20044;-59
2021/11/15 12:49:19;;;;;;;2.17;0.77;;;;;;;;;;5044731;28;22148;-58
2021/11/15 12:52:04;;;;;;;5.43;0.93;;;;;;;;;;5027235;28;20045;-58
2021/11/15 12:54:30;;;;;;;2.05;0.80;;;;;;;;;;5046292;28;20512;-58
2021/11/15 12:56:59;;;;;;;4.80;1.00;;;;;;;;;;5036702;28;20492;-57
2021/11/15 12:59:26;;;;;;;3.10;1.30;;;;;;;;;;5029228;28;20045;-56
2021/11/15 13:01:52;;;;;;;2.85;1.17;;;;;;;;;;5030756;28;20415;-57
2021/11/15 13:04:18;;;;;;;2.60;0.85;;;;;;;;;;5030536;28;20112;-57
2021/11/15 13:06:44;;;;;;;3.03;1.05;;;;;;;;;;5029788;28;20052;-58
2021/11/15 13:09:11;;;;;;;3.13;1.27;;;;;;;;;;5025310;28;20036;-57
2021/11/15 13:11:39;;;;;;;3.63;1.60;;;;;;;;;;5033368;28;20087;-58
2021/11/15 13:14:05;;;;;;;4.22;1.42;;;;;;;;;;5021012;28;20080;-58
2021/11/15 13:16:31;;;;;;;2.45;1.00;;;;;;;;;;5020660;28;20120;-57
2021/11/15 13:18:58;;;;;;;4.95;2.13;;;;;;;;;;5017881;28;20052;-58
2021/11/15 13:21:24;;;;;;;3.53;1.50;;;;;;;;;;5017861;28;20044;-58
2021/11/15 13:23:53;;;;;;;2.67;0.98;;;;;;;;;;5003993;28;20060;-56
2021/11/15 13:26:19;;;;;;;3.25;1.30;;;;;;;;;;5028795;28;20435;-59
2021/11/15 13:28:45;;;;;;;3.55;1.13;;;;;;;;;;5018305;28;20048;-60
2021/11/15 13:31:11;;;;;;;5.22;1.23;;;;;;;;;;5017441;28;20032;-58
2021/11/15 13:33:37;;;;;;;4.10;1.15;;;;;;;;;;5016114;28;20126;-57
2021/11/15 13:36:03;;;;;;;3.08;1.25;;;;;;;;;;5016963;28;20080;-58
2021/11/15 13:38:29;;;;;;;4.35;1.55;;;;;;;;;;5018343;28;20410;-59
2021/11/15 13:40:55;;;;;;;3.92;1.35;;;;;;;;;;5021263;28;20052;-59
2021/11/15 13:43:26;;;;;;;3.55;1.40;;;;;;;;;;5020257;28;20103;-60
2021/11/15 13:45:54;;;;;;;7.30;3.45;;;;;;;;;;5023156;28;20049;-60
2021/11/15 13:48:21;;;;;;;3.50;1.67;;;;;;;;;;5019941;28;20600;-59
2021/11/15 13:50:48;;;;;;;9.63;4.20;;;;;;;;;;5022293;28;20037;-59
2021/11/15 13:53:14;;;;;;;7.05;2.83;;;;;;;;;;5022016;28;20599;-59
2021/11/15 13:55:40;;;;;;;7.82;1.73;;;;;;;;;;5020257;28;20037;-59
2021/11/15 13:58:06;;;;;;;3.10;1.35;;;;;;;;;;5002379;28;20041;-59
2021/11/15 14:00:32;;;;;;;3.55;1.48;;;;;;;;;;5014977;28;20029;-58
2021/11/15 14:02:58;;;;;;;4.93;1.50;;;;;;;;;;5015542;28;20168;-59
2021/11/15 14:05:23;;;;;;;3.05;1.17;;;;;;;;;;5019823;28;20053;-59
2021/11/15 14:07:50;;;;;;;5.03;1.38;;;;;;;;;;5021614;28;20052;-59
2021/11/15 14:10:16;;;;;;;3.25;1.48;;;;;;;;;;5019297;28;20041;-59
2021/11/15 14:12:42;;;;;;;3.85;1.80;;;;;;;;;;5020075;28;20045;-59
2021/11/15 14:15:08;;;;;;;11.05;4.18;;;;;;;;;;5020835;28;20051;-60
2021/11/15 14:17:34;;;;;;;5.90;3.20;;;;;;;;;;5020595;28;20061;-60
2021/11/15 14:20:00;;;;;;;4.20;2.25;;;;;;;;;;5020950;28;20034;-58
2021/11/15 14:22:26;;;;;;;3.90;1.77;;;;;;;;;;5020227;28;20088;-59
2021/11/15 14:24:51;;;;;;;5.20;2.58;;;;;;;;;;5021943;28;20065;-58
2021/11/15 14:27:18;;;;;;;6.13;2.30;;;;;;;;;;5021046;28;20037;-59
2021/11/15 14:29:45;;;;;;;4.60;2.45;;;;;;;;;;5019368;28;20053;-58
2021/11/15 14:32:12;;;;;;;4.43;2.30;;;;;;;;;;5021446;28;20041;-58
2021/11/15 14:34:43;;;;;;;4.60;2.13;;;;;;;;;;5018436;28;20046;-58
2021/11/15 14:37:09;;;;;;;6.35;2.45;;;;;;;;;;5018923;28;21386;-60
2021/11/15 14:39:35;;;;;;;4.53;2.33;;;;;;;;;;5020267;28;20042;-60
2021/11/15 14:42:01;;;;;;;3.83;2.05;;;;;;;;;;5020926;28;20065;-60
2021/11/15 14:44:27;;;;;;;5.78;3.15;;;;;;;;;;5019472;28;20053;-60
2021/11/15 14:46:53;;;;;;;5.10;2.85;;;;;;;;;;5021667;28;20038;-59
2021/11/15 14:49:19;;;;;;;7.47;2.80;;;;;;;;;;5019786;28;20172;-57